Kulusuk

KL  EN  DA
ASIAQ
Weather Now GREENLAND SURVEY
Updated [WGT/WGST] Temperature [°C] Wind [m/s] Air pressure [hPa] Relative humidity [%] Precipitation [mm]
Present Wind chill Speed Max
25.02 08:00-10,2-19,68,0 ⇐9,7999440,0
25.02 07:00-10,4-20,08,4 ⇐9,8999500,0
25.02 06:00-10,5-19,57,2 ⇐9,6999510,0
25.02 05:00-10,6-19,97,7 ⇐8,9998530,0
25.02 04:00-10,6-19,26,5 ⇐8,6998570,0
25.02 03:00-10,7-19,26,2 ⇐9,7997550,0
25.02 02:00-10,4-15,02,3 ⇐3,7997510,0
25.02 01:00-12,10,00,5 ⇐1,4996520,0
25.02 00:00-12,4-16,92,0 ⇒2,4995540,0
24.02 23:00-12,3-18,33,0 ⇗3,9995520,0
24.02 22:00-12,7-17,11,9 ⇗2,2995500,0
24.02 21:00-11,60,00,9 ⇒1,8995500,0
24.02 20:00-10,4-15,32,5 ⇑3,4994450,0
24.02 19:00-11,1-14,21,4 ⇗2,0994510,0
24.02 18:00-11,2-15,11,8 ⇒3,1994500,0
24.02 17:00-10,70,01,0 ⇒2,2994500,0
24.02 16:00-11,1-15,21,9 ⇒3,5994510,0
24.02 15:00-11,1-15,72,2 ⇘3,1994440,0
24.02 14:00-10,9-17,33,6 ⇘5,8993470,0
24.02 13:00-10,7-17,74,3 ⇘6,0993450,0
24.02 12:00-10,8-17,74,2 ⇘6,5993450,0
24.02 11:00-11,9-16,32,0 ⇒2,4993570,0
24.02 10:00-11,3-15,62,0 ⇒3,5994500,0
24.02 09:00-12,6-17,52,2 ⇗2,8994550,0
24.02 08:00-13,3-17,11,6 ⇗2,2994580,0
Position: (65.583333,-37.15)

[Back]